sensor_id;sensor_type;location;lat;lon;timestamp;P1;durP1;ratioP1;P2;durP2;ratioP2
67965;SDS011;54749;47.850;9.002;2023-05-14T00:01:12;13.60;;;6.83;;
67965;SDS011;54749;47.850;9.002;2023-05-14T00:03:38;13.05;;;6.78;;
67965;SDS011;54749;47.850;9.002;2023-05-14T00:06:07;12.55;;;6.50;;
67965;SDS011;54749;47.850;9.002;2023-05-14T00:08:36;13.52;;;7.50;;
67965;SDS011;54749;47.850;9.002;2023-05-14T00:11:03;19.83;;;10.55;;
67965;SDS011;54749;47.850;9.002;2023-05-14T00:13:30;17.40;;;8.80;;
67965;SDS011;54749;47.850;9.002;2023-05-14T00:15:58;17.30;;;8.20;;
67965;SDS011;54749;47.850;9.002;2023-05-14T00:18:25;17.95;;;8.68;;
67965;SDS011;54749;47.850;9.002;2023-05-14T00:20:52;16.65;;;8.38;;
67965;SDS011;54749;47.850;9.002;2023-05-14T00:23:20;16.48;;;8.57;;
67965;SDS011;54749;47.850;9.002;2023-05-14T00:25:48;16.90;;;8.73;;
67965;SDS011;54749;47.850;9.002;2023-05-14T00:28:16;15.15;;;7.57;;
67965;SDS011;54749;47.850;9.002;2023-05-14T00:30:43;16.73;;;8.65;;
67965;SDS011;54749;47.850;9.002;2023-05-14T00:33:10;17.98;;;10.07;;
67965;SDS011;54749;47.850;9.002;2023-05-14T00:35:38;19.98;;;10.75;;
67965;SDS011;54749;47.850;9.002;2023-05-14T00:38:05;17.50;;;9.37;;
67965;SDS011;54749;47.850;9.002;2023-05-14T00:40:32;15.23;;;8.27;;
67965;SDS011;54749;47.850;9.002;2023-05-14T00:42:59;15.05;;;8.00;;
67965;SDS011;54749;47.850;9.002;2023-05-14T00:45:27;17.20;;;8.73;;
67965;SDS011;54749;47.850;9.002;2023-05-14T00:47:54;20.38;;;9.77;;
67965;SDS011;54749;47.850;9.002;2023-05-14T00:50:22;21.73;;;8.40;;
67965;SDS011;54749;47.850;9.002;2023-05-14T00:52:49;21.10;;;10.05;;
67965;SDS011;54749;47.850;9.002;2023-05-14T00:55:17;21.17;;;11.02;;
67965;SDS011;54749;47.850;9.002;2023-05-14T00:57:44;16.52;;;8.57;;
67965;SDS011;54749;47.850;9.002;2023-05-14T01:00:12;17.60;;;8.60;;
67965;SDS011;54749;47.850;9.002;2023-05-14T01:02:39;23.43;;;11.43;;
67965;SDS011;54749;47.850;9.002;2023-05-14T01:05:07;20.58;;;10.70;;
67965;SDS011;54749;47.850;9.002;2023-05-14T01:10:10;24.65;;;12.18;;
67965;SDS011;54749;47.850;9.002;2023-05-14T01:15:22;24.80;;;11.83;;
67965;SDS011;54749;47.850;9.002;2023-05-14T01:17:56;22.40;;;11.43;;
67965;SDS011;54749;47.850;9.002;2023-05-14T01:20:26;21.35;;;10.80;;
67965;SDS011;54749;47.850;9.002;2023-05-14T01:22:52;22.67;;;11.82;;
67965;SDS011;54749;47.850;9.002;2023-05-14T01:25:20;25.30;;;12.25;;
67965;SDS011;54749;47.850;9.002;2023-05-14T01:32:52;16.98;;;9.20;;
67965;SDS011;54749;47.850;9.002;2023-05-14T01:35:23;19.73;;;10.43;;
67965;SDS011;54749;47.850;9.002;2023-05-14T01:37:55;22.25;;;10.82;;
67965;SDS011;54749;47.850;9.002;2023-05-14T01:40:25;20.07;;;9.77;;
67965;SDS011;54749;47.850;9.002;2023-05-14T01:42:52;17.83;;;9.23;;
67965;SDS011;54749;47.850;9.002;2023-05-14T01:45:21;14.95;;;7.95;;
67965;SDS011;54749;47.850;9.002;2023-05-14T01:47:49;16.25;;;8.75;;
67965;SDS011;54749;47.850;9.002;2023-05-14T01:50:17;18.23;;;9.45;;
67965;SDS011;54749;47.850;9.002;2023-05-14T01:52:44;14.23;;;7.57;;
67965;SDS011;54749;47.850;9.002;2023-05-14T01:55:13;15.82;;;8.13;;
67965;SDS011;54749;47.850;9.002;2023-05-14T01:57:40;15.18;;;7.40;;
67965;SDS011;54749;47.850;9.002;2023-05-14T02:00:08;12.43;;;6.95;;
67965;SDS011;54749;47.850;9.002;2023-05-14T02:02:41;12.40;;;6.50;;
67965;SDS011;54749;47.850;9.002;2023-05-14T02:05:11;12.43;;;6.67;;
67965;SDS011;54749;47.850;9.002;2023-05-14T02:07:38;12.23;;;6.43;;
67965;SDS011;54749;47.850;9.002;2023-05-14T02:10:06;13.98;;;6.88;;
67965;SDS011;54749;47.850;9.002;2023-05-14T02:12:33;13.18;;;6.53;;
67965;SDS011;54749;47.850;9.002;2023-05-14T02:15:01;16.67;;;7.28;;
67965;SDS011;54749;47.850;9.002;2023-05-14T02:17:29;13.67;;;7.20;;
67965;SDS011;54749;47.850;9.002;2023-05-14T02:19:57;13.10;;;7.18;;
67965;SDS011;54749;47.850;9.002;2023-05-14T02:22:24;11.57;;;6.53;;
67965;SDS011;54749;47.850;9.002;2023-05-14T02:24:51;11.25;;;6.47;;
67965;SDS011;54749;47.850;9.002;2023-05-14T02:27:18;13.02;;;6.78;;
67965;SDS011;54749;47.850;9.002;2023-05-14T02:29:47;12.97;;;7.53;;
67965;SDS011;54749;47.850;9.002;2023-05-14T02:32:13;11.48;;;6.88;;
67965;SDS011;54749;47.850;9.002;2023-05-14T02:34:41;12.73;;;7.68;;
67965;SDS011;54749;47.850;9.002;2023-05-14T02:37:08;11.77;;;6.78;;
67965;SDS011;54749;47.850;9.002;2023-05-14T02:39:36;12.57;;;5.78;;
67965;SDS011;54749;47.850;9.002;2023-05-14T02:42:03;10.57;;;6.10;;
67965;SDS011;54749;47.850;9.002;2023-05-14T02:44:30;11.05;;;5.70;;
67965;SDS011;54749;47.850;9.002;2023-05-14T02:46:58;9.77;;;5.45;;
67965;SDS011;54749;47.850;9.002;2023-05-14T02:49:25;11.15;;;5.90;;
67965;SDS011;54749;47.850;9.002;2023-05-14T02:51:52;9.98;;;5.32;;
67965;SDS011;54749;47.850;9.002;2023-05-14T02:54:22;11.13;;;6.07;;
67965;SDS011;54749;47.850;9.002;2023-05-14T02:56:49;13.25;;;6.20;;
67965;SDS011;54749;47.850;9.002;2023-05-14T02:59:16;11.65;;;6.38;;
67965;SDS011;54749;47.850;9.002;2023-05-14T03:01:44;11.02;;;6.30;;
67965;SDS011;54749;47.850;9.002;2023-05-14T03:04:12;15.60;;;8.73;;
67965;SDS011;54749;47.850;9.002;2023-05-14T03:06:39;18.73;;;9.13;;
67965;SDS011;54749;47.850;9.002;2023-05-14T03:09:06;17.38;;;8.75;;
67965;SDS011;54749;47.850;9.002;2023-05-14T03:11:33;16.52;;;8.40;;
67965;SDS011;54749;47.850;9.002;2023-05-14T03:14:00;17.67;;;8.75;;
67965;SDS011;54749;47.850;9.002;2023-05-14T03:16:28;17.30;;;9.35;;
67965;SDS011;54749;47.850;9.002;2023-05-14T03:18:55;15.83;;;7.80;;
67965;SDS011;54749;47.850;9.002;2023-05-14T03:21:22;12.45;;;6.60;;
67965;SDS011;54749;47.850;9.002;2023-05-14T03:23:50;12.32;;;6.82;;
67965;SDS011;54749;47.850;9.002;2023-05-14T03:26:18;18.50;;;8.88;;
67965;SDS011;54749;47.850;9.002;2023-05-14T03:28:45;14.20;;;7.20;;
67965;SDS011;54749;47.850;9.002;2023-05-14T03:31:12;12.47;;;6.77;;
67965;SDS011;54749;47.850;9.002;2023-05-14T03:33:40;12.10;;;6.57;;
67965;SDS011;54749;47.850;9.002;2023-05-14T03:36:07;16.38;;;7.72;;
67965;SDS011;54749;47.850;9.002;2023-05-14T03:38:34;11.05;;;6.15;;
67965;SDS011;54749;47.850;9.002;2023-05-14T03:41:01;15.27;;;8.05;;
67965;SDS011;54749;47.850;9.002;2023-05-14T03:43:28;14.80;;;7.67;;
67965;SDS011;54749;47.850;9.002;2023-05-14T03:45:55;12.80;;;6.80;;
67965;SDS011;54749;47.850;9.002;2023-05-14T03:48:22;13.73;;;7.03;;
67965;SDS011;54749;47.850;9.002;2023-05-14T03:50:50;13.45;;;6.55;;
67965;SDS011;54749;47.850;9.002;2023-05-14T03:53:17;11.63;;;6.25;;
67965;SDS011;54749;47.850;9.002;2023-05-14T03:55:45;11.73;;;5.93;;
67965;SDS011;54749;47.850;9.002;2023-05-14T03:58:12;11.25;;;6.18;;
67965;SDS011;54749;47.850;9.002;2023-05-14T04:00:40;10.68;;;5.93;;
67965;SDS011;54749;47.850;9.002;2023-05-14T04:03:09;11.48;;;6.20;;
67965;SDS011;54749;47.850;9.002;2023-05-14T04:05:37;11.27;;;6.03;;
67965;SDS011;54749;47.850;9.002;2023-05-14T04:08:05;9.97;;;5.63;;
67965;SDS011;54749;47.850;9.002;2023-05-14T04:10:32;11.38;;;6.20;;
67965;SDS011;54749;47.850;9.002;2023-05-14T04:12:59;12.25;;;6.18;;
67965;SDS011;54749;47.850;9.002;2023-05-14T04:15:30;16.10;;;8.63;;
67965;SDS011;54749;47.850;9.002;2023-05-14T04:17:58;15.25;;;8.23;;
67965;SDS011;54749;47.850;9.002;2023-05-14T04:20:26;14.00;;;7.10;;
67965;SDS011;54749;47.850;9.002;2023-05-14T04:22:53;14.65;;;6.93;;
67965;SDS011;54749;47.850;9.002;2023-05-14T04:25:20;16.73;;;9.13;;
67965;SDS011;54749;47.850;9.002;2023-05-14T04:27:47;20.33;;;9.02;;
67965;SDS011;54749;47.850;9.002;2023-05-14T04:30:15;16.70;;;7.57;;
67965;SDS011;54749;47.850;9.002;2023-05-14T04:32:42;17.33;;;8.07;;
67965;SDS011;54749;47.850;9.002;2023-05-14T04:35:10;14.68;;;7.65;;
67965;SDS011;54749;47.850;9.002;2023-05-14T04:37:38;15.27;;;7.85;;
67965;SDS011;54749;47.850;9.002;2023-05-14T04:40:07;15.23;;;7.30;;
67965;SDS011;54749;47.850;9.002;2023-05-14T04:42:37;14.90;;;7.30;;
67965;SDS011;54749;47.850;9.002;2023-05-14T04:45:05;16.03;;;7.87;;
67965;SDS011;54749;47.850;9.002;2023-05-14T04:47:33;15.85;;;8.32;;
67965;SDS011;54749;47.850;9.002;2023-05-14T04:50:00;15.23;;;7.07;;
67965;SDS011;54749;47.850;9.002;2023-05-14T04:52:28;14.95;;;7.20;;
67965;SDS011;54749;47.850;9.002;2023-05-14T04:54:55;13.48;;;7.20;;
67965;SDS011;54749;47.850;9.002;2023-05-14T04:57:22;12.93;;;6.77;;
67965;SDS011;54749;47.850;9.002;2023-05-14T04:59:49;16.67;;;8.00;;
67965;SDS011;54749;47.850;9.002;2023-05-14T05:02:17;13.93;;;6.90;;
67965;SDS011;54749;47.850;9.002;2023-05-14T05:04:44;17.83;;;8.85;;
67965;SDS011;54749;47.850;9.002;2023-05-14T05:07:13;15.35;;;8.00;;
67965;SDS011;54749;47.850;9.002;2023-05-14T05:09:41;16.53;;;7.83;;
67965;SDS011;54749;47.850;9.002;2023-05-14T05:12:09;14.73;;;7.35;;
67965;SDS011;54749;47.850;9.002;2023-05-14T05:14:36;18.52;;;8.98;;
67965;SDS011;54749;47.850;9.002;2023-05-14T05:17:03;17.92;;;8.88;;
67965;SDS011;54749;47.850;9.002;2023-05-14T05:19:30;16.13;;;8.00;;
67965;SDS011;54749;47.850;9.002;2023-05-14T05:22:09;24.63;;;11.70;;
67965;SDS011;54749;47.850;9.002;2023-05-14T05:24:36;23.38;;;11.55;;
67965;SDS011;54749;47.850;9.002;2023-05-14T05:27:03;22.98;;;11.88;;
67965;SDS011;54749;47.850;9.002;2023-05-14T05:29:31;23.00;;;10.70;;
67965;SDS011;54749;47.850;9.002;2023-05-14T05:31:58;25.35;;;13.05;;
67965;SDS011;54749;47.850;9.002;2023-05-14T05:34:25;22.33;;;10.40;;
67965;SDS011;54749;47.850;9.002;2023-05-14T05:36:53;22.20;;;10.70;;
67965;SDS011;54749;47.850;9.002;2023-05-14T05:39:20;18.90;;;9.20;;
67965;SDS011;54749;47.850;9.002;2023-05-14T05:41:47;18.50;;;9.52;;
67965;SDS011;54749;47.850;9.002;2023-05-14T05:44:14;16.63;;;8.57;;
67965;SDS011;54749;47.850;9.002;2023-05-14T05:46:41;14.40;;;7.27;;
67965;SDS011;54749;47.850;9.002;2023-05-14T05:49:09;16.00;;;8.15;;
67965;SDS011;54749;47.850;9.002;2023-05-14T05:51:36;20.00;;;10.15;;
67965;SDS011;54749;47.850;9.002;2023-05-14T05:54:03;16.48;;;9.00;;
67965;SDS011;54749;47.850;9.002;2023-05-14T05:56:30;14.77;;;8.00;;
67965;SDS011;54749;47.850;9.002;2023-05-14T05:58:57;14.80;;;7.70;;
67965;SDS011;54749;47.850;9.002;2023-05-14T06:01:25;17.17;;;9.07;;
67965;SDS011;54749;47.850;9.002;2023-05-14T06:03:52;16.48;;;8.23;;
67965;SDS011;54749;47.850;9.002;2023-05-14T06:06:19;15.38;;;8.07;;
67965;SDS011;54749;47.850;9.002;2023-05-14T06:08:47;17.27;;;9.35;;
67965;SDS011;54749;47.850;9.002;2023-05-14T06:11:14;15.53;;;7.97;;
67965;SDS011;54749;47.850;9.002;2023-05-14T06:13:42;17.95;;;8.80;;
67965;SDS011;54749;47.850;9.002;2023-05-14T06:16:09;15.75;;;9.60;;
67965;SDS011;54749;47.850;9.002;2023-05-14T06:18:36;14.93;;;8.25;;
67965;SDS011;54749;47.850;9.002;2023-05-14T06:21:04;17.35;;;9.27;;
67965;SDS011;54749;47.850;9.002;2023-05-14T06:23:31;15.70;;;7.80;;
67965;SDS011;54749;47.850;9.002;2023-05-14T06:25:58;13.63;;;7.55;;
67965;SDS011;54749;47.850;9.002;2023-05-14T06:28:25;15.02;;;7.90;;
67965;SDS011;54749;47.850;9.002;2023-05-14T06:30:52;16.08;;;9.02;;
67965;SDS011;54749;47.850;9.002;2023-05-14T06:33:19;14.57;;;7.90;;
67965;SDS011;54749;47.850;9.002;2023-05-14T06:35:49;14.47;;;7.40;;
67965;SDS011;54749;47.850;9.002;2023-05-14T06:38:16;18.90;;;8.80;;
67965;SDS011;54749;47.850;9.002;2023-05-14T06:40:44;14.95;;;7.32;;
67965;SDS011;54749;47.850;9.002;2023-05-14T06:43:11;14.98;;;8.40;;
67965;SDS011;54749;47.850;9.002;2023-05-14T06:45:38;15.38;;;8.00;;
67965;SDS011;54749;47.850;9.002;2023-05-14T06:48:05;15.23;;;8.30;;
67965;SDS011;54749;47.850;9.002;2023-05-14T06:50:33;14.73;;;7.95;;
67965;SDS011;54749;47.850;9.002;2023-05-14T06:52:59;16.10;;;7.72;;
67965;SDS011;54749;47.850;9.002;2023-05-14T06:55:27;12.70;;;6.80;;
67965;SDS011;54749;47.850;9.002;2023-05-14T06:57:54;15.57;;;8.40;;
67965;SDS011;54749;47.850;9.002;2023-05-14T07:00:21;14.00;;;7.17;;
67965;SDS011;54749;47.850;9.002;2023-05-14T07:02:49;14.55;;;7.90;;
67965;SDS011;54749;47.850;9.002;2023-05-14T07:05:16;13.93;;;7.95;;
67965;SDS011;54749;47.850;9.002;2023-05-14T07:07:43;13.23;;;7.05;;
67965;SDS011;54749;47.850;9.002;2023-05-14T07:10:10;16.30;;;8.60;;
67965;SDS011;54749;47.850;9.002;2023-05-14T07:12:38;13.67;;;7.77;;
67965;SDS011;54749;47.850;9.002;2023-05-14T07:15:05;13.68;;;7.28;;
67965;SDS011;54749;47.850;9.002;2023-05-14T07:17:33;13.25;;;6.72;;
67965;SDS011;54749;47.850;9.002;2023-05-14T07:20:00;14.65;;;7.70;;
67965;SDS011;54749;47.850;9.002;2023-05-14T07:22:27;14.10;;;7.75;;
67965;SDS011;54749;47.850;9.002;2023-05-14T07:24:54;15.47;;;8.40;;
67965;SDS011;54749;47.850;9.002;2023-05-14T07:27:21;17.67;;;9.02;;
67965;SDS011;54749;47.850;9.002;2023-05-14T07:29:49;16.98;;;8.43;;
67965;SDS011;54749;47.850;9.002;2023-05-14T07:32:16;15.35;;;7.43;;
67965;SDS011;54749;47.850;9.002;2023-05-14T07:34:43;13.82;;;7.40;;
67965;SDS011;54749;47.850;9.002;2023-05-14T07:37:10;13.40;;;7.13;;
67965;SDS011;54749;47.850;9.002;2023-05-14T07:39:37;14.88;;;7.88;;
67965;SDS011;54749;47.850;9.002;2023-05-14T07:42:04;13.40;;;7.30;;
67965;SDS011;54749;47.850;9.002;2023-05-14T07:44:32;13.77;;;6.72;;
67965;SDS011;54749;47.850;9.002;2023-05-14T07:46:58;13.93;;;6.93;;
67965;SDS011;54749;47.850;9.002;2023-05-14T07:49:26;14.17;;;7.00;;
67965;SDS011;54749;47.850;9.002;2023-05-14T07:51:53;12.05;;;6.50;;
67965;SDS011;54749;47.850;9.002;2023-05-14T07:54:20;12.73;;;6.10;;
67965;SDS011;54749;47.850;9.002;2023-05-14T07:56:47;12.52;;;6.18;;
67965;SDS011;54749;47.850;9.002;2023-05-14T07:59:14;14.32;;;6.97;;
67965;SDS011;54749;47.850;9.002;2023-05-14T08:01:41;13.37;;;6.73;;
67965;SDS011;54749;47.850;9.002;2023-05-14T08:04:09;12.60;;;6.65;;
67965;SDS011;54749;47.850;9.002;2023-05-14T08:06:40;11.88;;;6.10;;
67965;SDS011;54749;47.850;9.002;2023-05-14T08:09:08;11.07;;;6.18;;
67965;SDS011;54749;47.850;9.002;2023-05-14T08:11:35;11.45;;;6.05;;
67965;SDS011;54749;47.850;9.002;2023-05-14T08:14:02;14.03;;;6.47;;
67965;SDS011;54749;47.850;9.002;2023-05-14T08:16:29;12.73;;;6.30;;
67965;SDS011;54749;47.850;9.002;2023-05-14T08:18:56;12.85;;;6.18;;
67965;SDS011;54749;47.850;9.002;2023-05-14T08:21:23;11.98;;;6.70;;
67965;SDS011;54749;47.850;9.002;2023-05-14T08:23:51;12.02;;;6.40;;
67965;SDS011;54749;47.850;9.002;2023-05-14T08:26:17;14.60;;;7.00;;
67965;SDS011;54749;47.850;9.002;2023-05-14T08:28:45;12.20;;;6.55;;
67965;SDS011;54749;47.850;9.002;2023-05-14T08:31:12;12.98;;;6.75;;
67965;SDS011;54749;47.850;9.002;2023-05-14T08:33:40;13.32;;;6.97;;
67965;SDS011;54749;47.850;9.002;2023-05-14T08:36:07;13.52;;;7.20;;
67965;SDS011;54749;47.850;9.002;2023-05-14T08:38:34;14.90;;;7.03;;
67965;SDS011;54749;47.850;9.002;2023-05-14T08:41:01;12.65;;;6.50;;
67965;SDS011;54749;47.850;9.002;2023-05-14T08:43:43;12.93;;;7.28;;
67965;SDS011;54749;47.850;9.002;2023-05-14T08:46:18;12.57;;;6.78;;
67965;SDS011;54749;47.850;9.002;2023-05-14T08:48:56;14.73;;;7.80;;
67965;SDS011;54749;47.850;9.002;2023-05-14T08:51:29;15.37;;;7.63;;
67965;SDS011;54749;47.850;9.002;2023-05-14T08:53:57;15.25;;;8.20;;
67965;SDS011;54749;47.850;9.002;2023-05-14T08:56:25;13.77;;;7.82;;
67965;SDS011;54749;47.850;9.002;2023-05-14T08:58:53;13.63;;;7.53;;
67965;SDS011;54749;47.850;9.002;2023-05-14T09:01:20;13.25;;;6.82;;
67965;SDS011;54749;47.850;9.002;2023-05-14T09:03:48;15.83;;;7.50;;
67965;SDS011;54749;47.850;9.002;2023-05-14T09:06:16;14.88;;;8.25;;
67965;SDS011;54749;47.850;9.002;2023-05-14T09:08:45;13.88;;;7.57;;
67965;SDS011;54749;47.850;9.002;2023-05-14T09:11:11;14.45;;;7.75;;
67965;SDS011;54749;47.850;9.002;2023-05-14T09:13:39;13.93;;;7.97;;
67965;SDS011;54749;47.850;9.002;2023-05-14T09:16:06;17.30;;;8.80;;
67965;SDS011;54749;47.850;9.002;2023-05-14T09:18:34;15.88;;;8.80;;
67965;SDS011;54749;47.850;9.002;2023-05-14T09:21:02;15.63;;;8.65;;
67965;SDS011;54749;47.850;9.002;2023-05-14T09:23:31;18.05;;;9.55;;
67965;SDS011;54749;47.850;9.002;2023-05-14T09:26:02;17.25;;;9.60;;
67965;SDS011;54749;47.850;9.002;2023-05-14T09:28:30;17.33;;;9.90;;
67965;SDS011;54749;47.850;9.002;2023-05-14T09:30:57;19.77;;;9.75;;
67965;SDS011;54749;47.850;9.002;2023-05-14T09:33:28;20.33;;;11.47;;
67965;SDS011;54749;47.850;9.002;2023-05-14T09:35:58;20.00;;;10.32;;
67965;SDS011;54749;47.850;9.002;2023-05-14T09:38:30;17.73;;;9.98;;
67965;SDS011;54749;47.850;9.002;2023-05-14T09:40:58;16.30;;;9.43;;
67965;SDS011;54749;47.850;9.002;2023-05-14T09:43:26;16.52;;;9.82;;
67965;SDS011;54749;47.850;9.002;2023-05-14T09:45:53;16.03;;;9.53;;
67965;SDS011;54749;47.850;9.002;2023-05-14T09:48:21;16.48;;;10.05;;
67965;SDS011;54749;47.850;9.002;2023-05-14T09:50:48;16.58;;;10.48;;
67965;SDS011;54749;47.850;9.002;2023-05-14T09:53:15;15.68;;;9.85;;
67965;SDS011;54749;47.850;9.002;2023-05-14T09:55:43;13.45;;;8.52;;
67965;SDS011;54749;47.850;9.002;2023-05-14T09:58:12;12.93;;;7.93;;
67965;SDS011;54749;47.850;9.002;2023-05-14T10:00:44;12.50;;;7.60;;
67965;SDS011;54749;47.850;9.002;2023-05-14T10:03:13;11.38;;;7.55;;
67965;SDS011;54749;47.850;9.002;2023-05-14T10:05:45;12.85;;;8.32;;
67965;SDS011;54749;47.850;9.002;2023-05-14T10:08:19;11.80;;;7.72;;
67965;SDS011;54749;47.850;9.002;2023-05-14T10:10:50;13.80;;;8.80;;
67965;SDS011;54749;47.850;9.002;2023-05-14T10:13:19;14.90;;;9.88;;
67965;SDS011;54749;47.850;9.002;2023-05-14T10:18:38;12.05;;;8.05;;
67965;SDS011;54749;47.850;9.002;2023-05-14T10:21:08;13.07;;;7.30;;
67965;SDS011;54749;47.850;9.002;2023-05-14T10:23:37;12.43;;;8.13;;
67965;SDS011;54749;47.850;9.002;2023-05-14T10:26:04;12.18;;;8.00;;
67965;SDS011;54749;47.850;9.002;2023-05-14T10:28:32;13.07;;;8.15;;
67965;SDS011;54749;47.850;9.002;2023-05-14T10:30:59;11.40;;;7.07;;
67965;SDS011;54749;47.850;9.002;2023-05-14T10:33:27;12.15;;;7.93;;
67965;SDS011;54749;47.850;9.002;2023-05-14T10:36:04;10.80;;;7.07;;
67965;SDS011;54749;47.850;9.002;2023-05-14T10:38:35;12.05;;;7.25;;
67965;SDS011;54749;47.850;9.002;2023-05-14T10:43:38;13.18;;;8.80;;
67965;SDS011;54749;47.850;9.002;2023-05-14T10:46:07;13.43;;;7.82;;
67965;SDS011;54749;47.850;9.002;2023-05-14T10:48:35;12.77;;;7.97;;
67965;SDS011;54749;47.850;9.002;2023-05-14T10:51:03;12.45;;;7.78;;
67965;SDS011;54749;47.850;9.002;2023-05-14T10:56:08;11.00;;;7.10;;
67965;SDS011;54749;47.850;9.002;2023-05-14T10:58:38;12.60;;;7.57;;
67965;SDS011;54749;47.850;9.002;2023-05-14T11:01:08;12.50;;;8.03;;
67965;SDS011;54749;47.850;9.002;2023-05-14T11:03:43;10.63;;;7.00;;
67965;SDS011;54749;47.850;9.002;2023-05-14T11:06:13;9.57;;;6.30;;
67965;SDS011;54749;47.850;9.002;2023-05-14T11:08:42;10.40;;;6.65;;
67965;SDS011;54749;47.850;9.002;2023-05-14T11:11:09;13.45;;;6.75;;
67965;SDS011;54749;47.850;9.002;2023-05-14T11:13:37;13.97;;;8.77;;
67965;SDS011;54749;47.850;9.002;2023-05-14T11:16:04;13.13;;;7.78;;
67965;SDS011;54749;47.850;9.002;2023-05-14T11:18:35;12.18;;;7.20;;
67965;SDS011;54749;47.850;9.002;2023-05-14T11:21:07;10.98;;;7.03;;
67965;SDS011;54749;47.850;9.002;2023-05-14T11:23:34;10.02;;;6.53;;
67965;SDS011;54749;47.850;9.002;2023-05-14T11:26:02;11.40;;;7.23;;
67965;SDS011;54749;47.850;9.002;2023-05-14T11:28:29;10.90;;;7.00;;
67965;SDS011;54749;47.850;9.002;2023-05-14T11:30:56;11.07;;;7.00;;
67965;SDS011;54749;47.850;9.002;2023-05-14T11:33:23;11.88;;;6.60;;
67965;SDS011;54749;47.850;9.002;2023-05-14T11:35:53;10.60;;;6.78;;
67965;SDS011;54749;47.850;9.002;2023-05-14T11:38:21;9.70;;;5.87;;
67965;SDS011;54749;47.850;9.002;2023-05-14T11:40:51;10.90;;;6.53;;
67965;SDS011;54749;47.850;9.002;2023-05-14T11:43:20;11.02;;;6.18;;
67965;SDS011;54749;47.850;9.002;2023-05-14T11:45:50;11.10;;;6.72;;
67965;SDS011;54749;47.850;9.002;2023-05-14T11:48:20;10.18;;;6.03;;
67965;SDS011;54749;47.850;9.002;2023-05-14T11:50:48;10.73;;;7.30;;
67965;SDS011;54749;47.850;9.002;2023-05-14T11:53:29;9.93;;;6.63;;
67965;SDS011;54749;47.850;9.002;2023-05-14T11:55:56;10.60;;;6.88;;
67965;SDS011;54749;47.850;9.002;2023-05-14T11:58:24;9.45;;;5.60;;
67965;SDS011;54749;47.850;9.002;2023-05-14T12:00:52;9.20;;;5.88;;
67965;SDS011;54749;47.850;9.002;2023-05-14T12:03:21;7.73;;;4.80;;
67965;SDS011;54749;47.850;9.002;2023-05-14T12:05:55;9.55;;;5.07;;
67965;SDS011;54749;47.850;9.002;2023-05-14T12:08:27;7.78;;;4.80;;
67965;SDS011;54749;47.850;9.002;2023-05-14T12:10:59;6.80;;;4.28;;
67965;SDS011;54749;47.850;9.002;2023-05-14T12:13:30;7.10;;;4.43;;
67965;SDS011;54749;47.850;9.002;2023-05-14T12:15:59;8.43;;;4.17;;
67965;SDS011;54749;47.850;9.002;2023-05-14T12:18:29;7.03;;;4.07;;
67965;SDS011;54749;47.850;9.002;2023-05-14T12:21:01;7.05;;;3.83;;
67965;SDS011;54749;47.850;9.002;2023-05-14T12:23:30;7.80;;;4.00;;
67965;SDS011;54749;47.850;9.002;2023-05-14T12:26:01;6.55;;;3.60;;
67965;SDS011;54749;47.850;9.002;2023-05-14T12:28:33;6.20;;;3.60;;
67965;SDS011;54749;47.850;9.002;2023-05-14T12:31:04;6.57;;;3.80;;
67965;SDS011;54749;47.850;9.002;2023-05-14T12:33:31;6.30;;;4.00;;
67965;SDS011;54749;47.850;9.002;2023-05-14T12:35:58;7.13;;;4.25;;
67965;SDS011;54749;47.850;9.002;2023-05-14T12:38:47;8.63;;;4.47;;
67965;SDS011;54749;47.850;9.002;2023-05-14T12:41:24;6.63;;;4.00;;
67965;SDS011;54749;47.850;9.002;2023-05-14T12:43:51;7.47;;;4.22;;
67965;SDS011;54749;47.850;9.002;2023-05-14T12:46:18;6.85;;;4.03;;
67965;SDS011;54749;47.850;9.002;2023-05-14T12:48:46;6.75;;;3.90;;
67965;SDS011;54749;47.850;9.002;2023-05-14T12:51:13;7.40;;;3.95;;
67965;SDS011;54749;47.850;9.002;2023-05-14T12:53:40;5.93;;;3.60;;
67965;SDS011;54749;47.850;9.002;2023-05-14T12:56:07;6.10;;;3.63;;
67965;SDS011;54749;47.850;9.002;2023-05-14T12:58:35;6.95;;;3.67;;
67965;SDS011;54749;47.850;9.002;2023-05-14T13:01:03;6.60;;;3.83;;
67965;SDS011;54749;47.850;9.002;2023-05-14T13:03:31;5.97;;;3.72;;
67965;SDS011;54749;47.850;9.002;2023-05-14T13:05:58;6.50;;;3.77;;
67965;SDS011;54749;47.850;9.002;2023-05-14T13:08:25;7.35;;;4.00;;
67965;SDS011;54749;47.850;9.002;2023-05-14T13:10:52;7.35;;;4.38;;
67965;SDS011;54749;47.850;9.002;2023-05-14T13:13:20;8.68;;;4.10;;
67965;SDS011;54749;47.850;9.002;2023-05-14T13:15:48;6.40;;;3.85;;
67965;SDS011;54749;47.850;9.002;2023-05-14T13:18:16;6.33;;;3.83;;
67965;SDS011;54749;47.850;9.002;2023-05-14T13:20:44;7.18;;;4.18;;
67965;SDS011;54749;47.850;9.002;2023-05-14T13:23:13;7.28;;;3.75;;
67965;SDS011;54749;47.850;9.002;2023-05-14T13:25:40;6.93;;;3.97;;
67965;SDS011;54749;47.850;9.002;2023-05-14T13:28:07;6.65;;;3.90;;
67965;SDS011;54749;47.850;9.002;2023-05-14T13:30:35;7.13;;;3.60;;
67965;SDS011;54749;47.850;9.002;2023-05-14T13:33:02;6.32;;;3.88;;
67965;SDS011;54749;47.850;9.002;2023-05-14T13:35:29;7.05;;;3.78;;
67965;SDS011;54749;47.850;9.002;2023-05-14T13:37:57;6.38;;;3.92;;
67965;SDS011;54749;47.850;9.002;2023-05-14T13:40:24;5.90;;;3.50;;
67965;SDS011;54749;47.850;9.002;2023-05-14T13:42:51;6.97;;;4.03;;
67965;SDS011;54749;47.850;9.002;2023-05-14T13:45:18;6.93;;;4.22;;
67965;SDS011;54749;47.850;9.002;2023-05-14T13:47:46;7.72;;;4.20;;
67965;SDS011;54749;47.850;9.002;2023-05-14T13:50:14;6.28;;;3.55;;
67965;SDS011;54749;47.850;9.002;2023-05-14T13:52:42;7.28;;;3.85;;
67965;SDS011;54749;47.850;9.002;2023-05-14T13:55:09;8.37;;;4.10;;
67965;SDS011;54749;47.850;9.002;2023-05-14T13:57:36;6.72;;;4.00;;
67965;SDS011;54749;47.850;9.002;2023-05-14T14:00:05;6.45;;;4.28;;
67965;SDS011;54749;47.850;9.002;2023-05-14T14:02:33;7.25;;;4.45;;
67965;SDS011;54749;47.850;9.002;2023-05-14T14:05:00;9.10;;;4.45;;
67965;SDS011;54749;47.850;9.002;2023-05-14T14:07:28;8.13;;;4.20;;
67965;SDS011;54749;47.850;9.002;2023-05-14T14:09:55;5.60;;;3.20;;
67965;SDS011;54749;47.850;9.002;2023-05-14T14:12:22;4.78;;;2.47;;
67965;SDS011;54749;47.850;9.002;2023-05-14T14:14:49;4.53;;;2.10;;
67965;SDS011;54749;47.850;9.002;2023-05-14T14:17:16;4.20;;;1.67;;
67965;SDS011;54749;47.850;9.002;2023-05-14T14:19:43;4.20;;;1.50;;
67965;SDS011;54749;47.850;9.002;2023-05-14T14:22:11;3.47;;;1.30;;
67965;SDS011;54749;47.850;9.002;2023-05-14T14:24:39;3.90;;;1.58;;
67965;SDS011;54749;47.850;9.002;2023-05-14T14:27:06;3.78;;;1.40;;
67965;SDS011;54749;47.850;9.002;2023-05-14T14:29:33;4.07;;;1.65;;
67965;SDS011;54749;47.850;9.002;2023-05-14T14:32:02;3.70;;;1.30;;
67965;SDS011;54749;47.850;9.002;2023-05-14T14:34:30;5.25;;;1.98;;
67965;SDS011;54749;47.850;9.002;2023-05-14T14:36:57;3.88;;;1.60;;
67965;SDS011;54749;47.850;9.002;2023-05-14T14:39:24;4.38;;;1.75;;
67965;SDS011;54749;47.850;9.002;2023-05-14T14:41:52;6.15;;;1.80;;
67965;SDS011;54749;47.850;9.002;2023-05-14T14:44:19;4.73;;;1.60;;
67965;SDS011;54749;47.850;9.002;2023-05-14T14:46:46;5.72;;;1.77;;
67965;SDS011;54749;47.850;9.002;2023-05-14T14:49:13;4.97;;;2.10;;
67965;SDS011;54749;47.850;9.002;2023-05-14T14:51:41;5.07;;;2.08;;
67965;SDS011;54749;47.850;9.002;2023-05-14T14:54:08;4.22;;;1.85;;
67965;SDS011;54749;47.850;9.002;2023-05-14T14:56:35;3.80;;;1.80;;
67965;SDS011;54749;47.850;9.002;2023-05-14T14:59:02;4.68;;;1.92;;